createdAt,value
2022-10-05T00:03:39.109Z,13.63
2022-10-05T00:06:11.254Z,14.20
2022-10-05T00:08:39.260Z,13.90
2022-10-05T00:11:08.343Z,13.45
2022-10-05T00:13:36.058Z,13.88
2022-10-05T00:16:16.240Z,14.20
2022-10-05T00:18:49.502Z,14.23
2022-10-05T00:21:29.057Z,13.63
2022-10-05T00:23:58.205Z,14.30
2022-10-05T00:26:32.937Z,13.32
2022-10-05T00:29:02.534Z,12.90
2022-10-05T00:31:35.851Z,12.85
2022-10-05T00:34:03.702Z,12.82
2022-10-05T00:36:31.469Z,12.85
2022-10-05T00:39:02.001Z,13.75
2022-10-05T00:41:40.600Z,13.50
2022-10-05T00:44:29.758Z,13.07
2022-10-05T00:47:32.142Z,13.50
2022-10-05T00:50:21.149Z,12.77
2022-10-05T00:53:00.137Z,12.30
2022-10-05T00:55:43.332Z,12.55
2022-10-05T00:58:11.058Z,12.60
2022-10-05T01:01:05.235Z,12.05
2022-10-05T01:04:11.126Z,13.73
2022-10-05T01:06:54.160Z,12.93
2022-10-05T01:09:41.034Z,12.80
2022-10-05T01:12:41.507Z,12.25
2022-10-05T01:15:15.056Z,12.57
2022-10-05T01:18:00.884Z,12.20
2022-10-05T01:20:44.487Z,11.88
2022-10-05T01:23:22.033Z,11.43
2022-10-05T01:26:37.053Z,11.63
2022-10-05T01:31:32.907Z,10.95
2022-10-05T01:34:22.731Z,11.57
2022-10-05T01:37:12.547Z,11.27
2022-10-05T01:39:50.409Z,11.88
2022-10-05T01:42:33.685Z,13.25
2022-10-05T01:45:17.533Z,11.45
2022-10-05T01:47:54.388Z,12.07
2022-10-05T01:51:04.675Z,11.45
2022-10-05T01:53:50.781Z,11.95
2022-10-05T01:56:33.516Z,11.77
2022-10-05T01:59:31.064Z,11.25
2022-10-05T02:02:04.170Z,11.85
2022-10-05T02:05:02.057Z,11.50
2022-10-05T02:07:33.602Z,11.25
2022-10-05T02:10:26.109Z,11.77
2022-10-05T02:13:09.906Z,11.25
2022-10-05T02:15:47.383Z,11.90
2022-10-05T02:18:29.050Z,11.23
2022-10-05T02:20:58.538Z,11.70
2022-10-05T02:23:33.409Z,10.98
2022-10-05T02:26:02.257Z,10.90
2022-10-05T02:28:44.160Z,10.30
2022-10-05T02:31:17.994Z,10.45
2022-10-05T02:33:48.322Z,11.95
2022-10-05T02:36:26.313Z,12.25
2022-10-05T02:39:36.977Z,11.57
2022-10-05T02:42:30.181Z,12.30
2022-10-05T02:45:49.702Z,11.75
2022-10-05T02:48:41.085Z,11.40
2022-10-05T02:51:17.813Z,11.73
2022-10-05T02:54:15.051Z,11.90
2022-10-05T02:57:13.252Z,11.27
2022-10-05T02:59:56.260Z,12.80
2022-10-05T03:02:26.545Z,12.35
2022-10-05T03:05:12.887Z,12.75
2022-10-05T03:07:48.427Z,13.13
2022-10-05T03:10:29.975Z,13.02
2022-10-05T03:13:07.006Z,12.48
2022-10-05T03:15:35.441Z,13.45
2022-10-05T03:18:09.904Z,12.43
2022-10-05T03:21:03.995Z,13.70
2022-10-05T03:23:53.695Z,13.00
2022-10-05T03:27:01.120Z,13.88
2022-10-05T03:29:41.433Z,13.32
2022-10-05T03:32:19.795Z,14.85
2022-10-05T03:34:59.507Z,14.23
2022-10-05T03:37:44.758Z,13.32
2022-10-05T03:40:24.221Z,14.13
2022-10-05T03:43:16.756Z,14.15
2022-10-05T03:45:47.800Z,14.60
2022-10-05T03:48:25.493Z,13.95
2022-10-05T03:51:21.049Z,13.13
2022-10-05T03:53:57.476Z,13.02
2022-10-05T03:56:50.827Z,14.55
2022-10-05T03:59:39.181Z,15.43
2022-10-05T04:02:31.494Z,13.48
2022-10-05T04:05:14.211Z,15.32
2022-10-05T04:07:46.731Z,15.07
2022-10-05T04:10:47.256Z,15.35
2022-10-05T04:13:38.330Z,14.18
2022-10-05T04:16:20.017Z,14.93
2022-10-05T04:18:57.423Z,15.05
2022-10-05T04:21:40.033Z,15.25
2022-10-05T04:24:35.630Z,13.85
2022-10-05T04:27:16.519Z,14.35
2022-10-05T04:30:16.765Z,14.82
2022-10-05T04:32:57.213Z,14.95
2022-10-05T04:36:03.553Z,15.55
2022-10-05T04:38:56.150Z,15.52
2022-10-05T04:41:47.627Z,15.40
2022-10-05T04:44:44.349Z,16.50
2022-10-05T04:47:39.953Z,16.27
2022-10-05T04:50:44.552Z,15.48
2022-10-05T04:53:31.048Z,16.05
2022-10-05T04:56:15.426Z,16.08
2022-10-05T04:59:13.519Z,16.98
2022-10-05T05:02:18.698Z,16.13
2022-10-05T05:05:08.106Z,16.80
2022-10-05T05:07:39.693Z,16.25
2022-10-05T05:10:19.788Z,16.98
2022-10-05T05:13:26.444Z,16.27
2022-10-05T05:16:21.575Z,16.83
2022-10-05T05:19:08.507Z,16.73
2022-10-05T05:21:44.958Z,16.70
2022-10-05T05:24:33.878Z,16.77
2022-10-05T05:27:01.917Z,16.92
2022-10-05T05:29:35.082Z,16.38
2022-10-05T05:32:09.097Z,16.15
2022-10-05T05:35:19.085Z,16.17
2022-10-05T05:38:00.967Z,16.00
2022-10-05T05:40:35.422Z,15.90
2022-10-05T05:43:32.376Z,14.55
2022-10-05T05:46:08.262Z,15.63
2022-10-05T05:48:42.276Z,15.23
2022-10-05T05:51:21.431Z,14.48
2022-10-05T05:53:59.390Z,14.82
2022-10-05T05:56:38.245Z,14.00
2022-10-05T05:59:22.544Z,14.77
2022-10-05T06:05:06.533Z,13.50
2022-10-05T06:07:38.065Z,13.15
2022-10-05T06:10:29.416Z,13.88
2022-10-05T06:13:14.714Z,14.27
2022-10-05T06:16:09.161Z,13.50
2022-10-05T06:18:41.890Z,13.48
2022-10-05T06:21:35.937Z,13.25
2022-10-05T06:24:55.324Z,13.07
2022-10-05T06:27:57.785Z,11.95
2022-10-05T06:30:33.530Z,12.70
2022-10-05T06:33:16.147Z,12.73
2022-10-05T06:36:15.082Z,13.15
2022-10-05T06:38:51.909Z,11.93
2022-10-05T06:41:59.901Z,12.13
2022-10-05T06:44:47.537Z,12.55
2022-10-05T06:48:11.535Z,12.25
2022-10-05T06:51:15.416Z,10.90
2022-10-05T06:54:31.762Z,11.55
2022-10-05T06:57:14.293Z,11.57
2022-10-05T07:00:02.401Z,10.65
2022-10-05T07:02:54.478Z,10.60
2022-10-05T07:05:46.357Z,10.75
2022-10-05T07:08:24.368Z,9.90
2022-10-05T07:11:06.785Z,10.38
2022-10-05T07:14:00.904Z,9.20
2022-10-05T07:17:16.751Z,8.80
2022-10-05T07:20:06.937Z,9.25
2022-10-05T07:23:14.922Z,9.20
2022-10-05T07:26:08.957Z,9.13
2022-10-05T07:29:14.715Z,8.70
2022-10-05T07:31:48.562Z,8.63
2022-10-05T07:34:47.993Z,8.02
2022-10-05T07:37:49.209Z,8.60
2022-10-05T07:40:41.716Z,8.40
2022-10-05T07:43:21.946Z,8.18
2022-10-05T07:46:08.487Z,7.57
2022-10-05T07:48:55.085Z,7.43
2022-10-05T07:51:25.658Z,7.78
2022-10-05T07:54:56.323Z,7.30
2022-10-05T07:57:46.085Z,7.25
2022-10-05T08:00:43.183Z,7.13
2022-10-05T08:03:20.532Z,7.50
2022-10-05T08:05:48.432Z,6.47
2022-10-05T08:08:53.810Z,6.55
2022-10-05T08:11:58.185Z,7.00
2022-10-05T08:14:43.103Z,6.80
2022-10-05T08:17:28.971Z,6.45
2022-10-05T08:20:09.905Z,6.15
2022-10-05T08:22:47.161Z,6.40
2022-10-05T08:25:26.997Z,6.25
2022-10-05T08:28:22.454Z,5.97
2022-10-05T08:31:03.920Z,6.05
2022-10-05T08:33:44.352Z,5.90
2022-10-05T08:36:15.856Z,5.70
2022-10-05T08:38:44.499Z,5.50
2022-10-05T08:41:53.800Z,5.55
2022-10-05T08:44:59.116Z,5.38
2022-10-05T08:47:35.056Z,5.38
2022-10-05T08:50:08.526Z,5.55
2022-10-05T08:53:07.894Z,5.18
2022-10-05T08:56:06.522Z,5.47
2022-10-05T08:58:49.376Z,5.68
2022-10-05T09:01:41.326Z,5.15
2022-10-05T09:04:38.423Z,5.50
2022-10-05T09:07:09.936Z,5.22
2022-10-05T09:10:00.875Z,5.43
2022-10-05T09:12:42.997Z,4.95
2022-10-05T09:15:48.427Z,4.97
2022-10-05T09:18:54.763Z,5.43
2022-10-05T09:21:50.200Z,5.10
2022-10-05T09:24:33.363Z,5.22
2022-10-05T09:27:25.988Z,4.70
2022-10-05T09:30:15.740Z,4.93
2022-10-05T09:33:25.929Z,5.10
2022-10-05T09:36:24.928Z,5.72
2022-10-05T09:39:11.325Z,4.90
2022-10-05T09:41:45.229Z,5.32
2022-10-05T09:44:19.113Z,5.03
2022-10-05T09:46:53.636Z,5.00
2022-10-05T09:49:59.854Z,4.82
2022-10-05T09:52:53.573Z,4.80
2022-10-05T09:55:33.506Z,4.97
2022-10-05T09:58:24.830Z,5.07
2022-10-05T10:01:34.620Z,4.40
2022-10-05T10:04:10.178Z,4.97
2022-10-05T10:07:13.303Z,4.55
2022-10-05T10:10:08.172Z,4.40
2022-10-05T10:12:41.644Z,4.07
2022-10-05T10:15:38.447Z,4.57
2022-10-05T10:18:25.277Z,4.40
2022-10-05T10:21:30.155Z,4.18
2022-10-05T10:27:02.833Z,4.30
2022-10-05T10:29:40.130Z,4.13
2022-10-05T10:32:13.839Z,4.35
2022-10-05T10:34:41.769Z,4.43
2022-10-05T10:37:35.473Z,3.90
2022-10-05T10:40:27.008Z,4.28
2022-10-05T10:43:13.832Z,4.72
2022-10-05T10:46:07.364Z,4.80
2022-10-05T10:48:50.092Z,4.03
2022-10-05T10:51:49.383Z,4.60
2022-10-05T10:54:48.856Z,4.68
2022-10-05T10:57:48.659Z,4.82
2022-10-05T11:00:54.976Z,4.03
2022-10-05T11:03:53.376Z,4.63
2022-10-05T11:06:33.087Z,4.60
2022-10-05T11:09:34.239Z,4.43
2022-10-05T11:12:43.134Z,4.82
2022-10-05T11:15:13.643Z,4.63
2022-10-05T11:18:00.666Z,4.80
2022-10-05T11:20:49.742Z,4.93
2022-10-05T11:23:54.095Z,5.07
2022-10-05T11:27:03.559Z,5.10
2022-10-05T11:30:06.015Z,4.90
2022-10-05T11:32:41.790Z,5.22
2022-10-05T11:35:34.426Z,5.25
2022-10-05T11:38:05.033Z,5.05
2022-10-05T11:41:17.767Z,5.25
2022-10-05T11:44:07.772Z,5.07
2022-10-05T11:46:52.474Z,5.60
2022-10-05T11:49:26.439Z,5.15
2022-10-05T11:52:16.915Z,5.50
2022-10-05T11:55:15.449Z,4.72
2022-10-05T11:57:50.337Z,5.57
2022-10-05T12:00:19.898Z,4.90
2022-10-05T12:03:12.400Z,5.40
2022-10-05T12:06:01.795Z,5.13
2022-10-05T12:08:38.739Z,4.70
2022-10-05T12:11:36.843Z,4.50
2022-10-05T12:14:24.257Z,4.47
2022-10-05T12:17:02.749Z,4.95
2022-10-05T12:19:45.757Z,4.70
2022-10-05T12:22:23.009Z,4.47
2022-10-05T12:25:19.379Z,4.60
2022-10-05T12:27:51.512Z,4.60
2022-10-05T12:30:25.863Z,4.70
2022-10-05T12:33:02.487Z,5.00
2022-10-05T12:35:48.999Z,4.43
2022-10-05T12:38:28.503Z,4.05
2022-10-05T12:41:36.683Z,4.30
2022-10-05T12:44:13.446Z,4.30
2022-10-05T12:46:50.183Z,4.45
2022-10-05T12:49:39.278Z,3.90
2022-10-05T12:52:19.278Z,4.45
2022-10-05T12:54:55.449Z,4.28
2022-10-05T12:57:34.779Z,4.45
2022-10-05T13:00:23.164Z,4.13
2022-10-05T13:03:10.789Z,4.47
2022-10-05T13:06:02.790Z,4.82
2022-10-05T13:08:39.539Z,4.40
2022-10-05T13:11:32.752Z,4.80
2022-10-05T13:14:35.385Z,4.70
2022-10-05T13:17:30.015Z,5.30
2022-10-05T13:20:16.493Z,5.38
2022-10-05T13:22:50.377Z,4.95
2022-10-05T13:25:37.574Z,5.28
2022-10-05T13:28:23.236Z,5.18
2022-10-05T13:31:13.215Z,5.53
2022-10-05T13:34:02.696Z,5.15
2022-10-05T13:36:49.337Z,5.35
2022-10-05T13:39:36.160Z,5.70
2022-10-05T13:42:32.836Z,5.57
2022-10-05T13:45:14.476Z,5.43
2022-10-05T13:47:55.013Z,5.55
2022-10-05T13:50:34.630Z,5.53
2022-10-05T13:53:35.683Z,5.38
2022-10-05T13:56:11.703Z,5.03
2022-10-05T13:58:50.975Z,5.38
2022-10-05T14:01:41.815Z,5.38
2022-10-05T14:04:42.107Z,5.43
2022-10-05T14:07:49.245Z,5.07
2022-10-05T14:10:37.490Z,5.57
2022-10-05T14:13:23.718Z,5.85
2022-10-05T14:16:20.215Z,5.22
2022-10-05T14:18:58.399Z,5.05
2022-10-05T14:21:31.803Z,5.57
2022-10-05T14:24:45.881Z,5.65
2022-10-05T14:27:33.390Z,5.55
2022-10-05T14:30:25.736Z,5.50
2022-10-05T14:33:04.349Z,5.60
2022-10-05T14:35:54.966Z,5.63
2022-10-05T14:38:29.453Z,5.57
2022-10-05T14:41:20.630Z,5.32
2022-10-05T14:44:02.151Z,5.47
2022-10-05T14:46:32.772Z,5.20
2022-10-05T14:49:21.563Z,5.95
2022-10-05T14:51:51.592Z,5.65
2022-10-05T14:55:00.948Z,5.57
2022-10-05T14:57:44.962Z,5.82
2022-10-05T15:00:16.617Z,5.28
2022-10-05T15:02:45.221Z,5.50
2022-10-05T15:05:24.846Z,5.35
2022-10-05T15:07:57.293Z,5.75
2022-10-05T15:10:40.668Z,5.65
2022-10-05T15:13:29.936Z,5.80
2022-10-05T15:15:59.954Z,5.85
2022-10-05T15:18:32.193Z,5.80
2022-10-05T15:21:21.652Z,5.80
2022-10-05T15:24:09.402Z,6.18
2022-10-05T15:27:00.393Z,5.70
2022-10-05T15:30:04.736Z,6.10
2022-10-05T15:32:44.350Z,5.50
2022-10-05T15:35:38.528Z,5.88
2022-10-05T15:38:20.751Z,6.10
2022-10-05T15:41:09.165Z,5.97
2022-10-05T15:44:08.408Z,5.75
2022-10-05T15:46:56.442Z,6.15
2022-10-05T15:49:57.247Z,6.35
2022-10-05T15:52:40.756Z,6.40
2022-10-05T15:55:29.816Z,6.80
2022-10-05T15:58:31.312Z,6.63
2022-10-05T16:01:08.006Z,6.00
2022-10-05T16:03:44.580Z,6.70
2022-10-05T16:06:48.907Z,7.45
2022-10-05T16:09:29.111Z,6.00
2022-10-05T16:12:09.821Z,6.50
2022-10-05T16:14:49.688Z,6.13
2022-10-05T16:17:28.362Z,7.07
2022-10-05T16:20:21.260Z,6.63
2022-10-05T16:23:02.693Z,6.63
2022-10-05T16:25:30.502Z,6.80
2022-10-05T16:28:30.498Z,6.80
2022-10-05T16:31:26.666Z,7.43
2022-10-05T16:34:06.412Z,7.57
2022-10-05T16:36:40.406Z,7.43
2022-10-05T16:39:19.109Z,7.47
2022-10-05T16:42:14.007Z,7.82
2022-10-05T16:47:49.492Z,8.23
2022-10-05T16:50:54.277Z,8.18
2022-10-05T16:56:01.234Z,9.40
2022-10-05T16:58:56.707Z,8.93
2022-10-05T17:01:42.590Z,9.07
2022-10-05T17:04:28.349Z,9.60
2022-10-05T17:07:35.860Z,9.38
2022-10-05T17:10:35.862Z,9.48
2022-10-05T17:13:31.560Z,9.25
2022-10-05T17:16:26.940Z,8.57
2022-10-05T17:19:24.350Z,9.15
2022-10-05T17:22:00.745Z,9.23
2022-10-05T17:24:28.488Z,9.68
2022-10-05T17:27:24.921Z,9.60
2022-10-05T17:29:55.287Z,9.13
2022-10-05T17:32:23.197Z,9.77
2022-10-05T17:35:18.219Z,9.23
2022-10-05T17:38:23.147Z,9.02
2022-10-05T17:41:12.483Z,9.32
2022-10-05T17:43:40.989Z,9.20
2022-10-05T17:46:12.404Z,9.10
2022-10-05T17:48:54.538Z,8.75
2022-10-05T17:51:46.852Z,9.65
2022-10-05T17:55:08.274Z,9.35
2022-10-05T17:57:37.227Z,10.07
2022-10-05T18:00:14.482Z,9.50
2022-10-05T18:02:43.593Z,9.52
2022-10-05T18:05:12.470Z,10.20
2022-10-05T18:07:50.917Z,9.73
2022-10-05T18:10:29.707Z,9.45
2022-10-05T18:13:00.398Z,10.23
2022-10-05T18:15:28.363Z,9.50
2022-10-05T18:18:32.108Z,9.43
2022-10-05T18:21:32.224Z,10.38
2022-10-05T18:23:59.834Z,10.48
2022-10-05T18:26:52.033Z,10.50
2022-10-05T18:29:56.400Z,10.23
2022-10-05T18:32:46.312Z,10.00
2022-10-05T18:35:23.460Z,10.50
2022-10-05T18:38:17.239Z,9.65
2022-10-05T18:40:54.026Z,10.25
2022-10-05T18:43:47.089Z,9.57
2022-10-05T18:46:30.397Z,9.80
2022-10-05T18:49:10.996Z,8.98
2022-10-05T18:52:19.363Z,9.90
2022-10-05T18:55:19.055Z,9.43
2022-10-05T18:58:15.674Z,9.80
2022-10-05T19:01:09.896Z,9.73
2022-10-05T19:03:43.395Z,9.73
2022-10-05T19:06:17.246Z,9.68
2022-10-05T19:08:51.375Z,9.73
2022-10-05T19:11:43.130Z,9.35
2022-10-05T19:14:31.974Z,8.85
2022-10-05T19:17:20.075Z,9.13
2022-10-05T19:20:18.102Z,9.50
2022-10-05T19:23:12.147Z,9.57
2022-10-05T19:26:14.142Z,9.63
2022-10-05T19:28:47.229Z,9.90
2022-10-05T19:31:33.036Z,9.45
2022-10-05T19:34:16.435Z,9.38
2022-10-05T19:37:08.633Z,9.63
2022-10-05T19:40:07.221Z,9.75
2022-10-05T19:42:58.058Z,10.55
2022-10-05T19:45:29.402Z,11.98
2022-10-05T19:48:17.799Z,12.30
2022-10-05T19:51:12.261Z,11.07
2022-10-05T19:53:46.878Z,12.60
2022-10-05T19:56:20.278Z,12.15
2022-10-05T19:58:50.155Z,12.85
2022-10-05T20:01:30.880Z,14.02
2022-10-05T20:03:58.724Z,14.20
2022-10-05T20:06:35.546Z,13.65
2022-10-05T20:09:21.210Z,14.73
2022-10-05T20:11:56.567Z,14.85
2022-10-05T20:14:33.778Z,14.13
2022-10-05T20:17:48.423Z,14.85
2022-10-05T20:20:34.746Z,14.55
2022-10-05T20:23:22.403Z,15.40
2022-10-05T20:26:09.849Z,14.60
2022-10-05T20:28:38.204Z,15.07
2022-10-05T20:31:08.951Z,14.43
2022-10-05T20:33:36.951Z,15.30
2022-10-05T20:36:05.280Z,15.02
2022-10-05T20:38:40.059Z,14.88
2022-10-05T20:41:09.060Z,14.70
2022-10-05T20:43:39.065Z,15.45
2022-10-05T20:46:07.614Z,15.00
2022-10-05T20:48:45.825Z,15.98
2022-10-05T20:51:14.587Z,14.80
2022-10-05T20:53:42.299Z,15.40
2022-10-05T20:56:10.279Z,14.40
2022-10-05T20:58:38.041Z,14.57
2022-10-05T21:01:23.379Z,14.80
2022-10-05T21:03:51.304Z,15.15
2022-10-05T21:06:21.040Z,14.63
2022-10-05T21:08:51.410Z,15.70
2022-10-05T21:11:19.410Z,14.68
2022-10-05T21:13:47.274Z,13.57
2022-10-05T21:16:17.332Z,14.73
2022-10-05T21:18:48.709Z,14.73
2022-10-05T21:21:19.482Z,14.18
2022-10-05T21:23:48.835Z,14.40
2022-10-05T21:26:16.551Z,14.68
2022-10-05T21:28:44.329Z,20.02
2022-10-05T21:31:12.706Z,13.98
2022-10-05T21:33:40.584Z,13.98
2022-10-05T21:36:08.319Z,13.73
2022-10-05T21:38:36.578Z,13.20
2022-10-05T21:41:04.321Z,14.02
2022-10-05T21:43:32.012Z,13.82
2022-10-05T21:46:01.395Z,13.77
2022-10-05T21:48:31.515Z,12.98
2022-10-05T21:51:01.194Z,13.13
2022-10-05T21:53:33.886Z,13.80
2022-10-05T21:56:08.071Z,13.98
2022-10-05T22:01:04.044Z,13.90
2022-10-05T22:03:31.987Z,13.68
2022-10-05T22:05:59.862Z,13.80
2022-10-05T22:08:30.225Z,13.70
2022-10-05T22:11:08.926Z,13.20
2022-10-05T22:13:49.540Z,13.88
2022-10-05T22:16:19.708Z,14.00
2022-10-05T22:18:48.827Z,13.88
2022-10-05T22:21:17.067Z,14.20
2022-10-05T22:23:46.918Z,14.00
2022-10-05T22:26:19.441Z,13.38
2022-10-05T22:28:48.079Z,13.88
2022-10-05T22:31:17.901Z,14.15
2022-10-05T22:33:47.997Z,13.57
2022-10-05T22:36:16.227Z,13.45
2022-10-05T22:38:46.514Z,14.35
2022-10-05T22:41:16.484Z,13.23
2022-10-05T22:43:44.445Z,14.45
2022-10-05T22:46:13.535Z,13.93
2022-10-05T22:48:43.624Z,14.32
2022-10-05T22:51:12.503Z,14.70
2022-10-05T22:53:40.669Z,14.25
2022-10-05T22:56:11.061Z,14.07
2022-10-05T22:58:39.941Z,13.82
2022-10-05T23:01:10.614Z,14.63
2022-10-05T23:03:38.426Z,15.18
2022-10-05T23:06:10.709Z,14.77
2022-10-05T23:08:39.705Z,14.65
2022-10-05T23:11:13.097Z,14.32
2022-10-05T23:13:43.227Z,14.85
2022-10-05T23:16:17.272Z,14.30
2022-10-05T23:18:47.227Z,14.52
2022-10-05T23:21:15.489Z,14.65
2022-10-05T23:23:49.003Z,14.43
2022-10-05T23:26:18.526Z,14.57
2022-10-05T23:28:47.364Z,15.50
2022-10-05T23:31:17.835Z,15.55
2022-10-05T23:33:45.914Z,15.52
2022-10-05T23:36:18.147Z,14.52
2022-10-05T23:38:46.165Z,15.63
2022-10-05T23:41:14.748Z,14.52
2022-10-05T23:43:42.843Z,14.85
2022-10-05T23:46:11.492Z,14.65
2022-10-05T23:48:40.608Z,15.65
2022-10-05T23:51:10.481Z,15.32
2022-10-05T23:53:38.528Z,15.30
2022-10-05T23:56:06.995Z,15.07
2022-10-05T23:58:34.718Z,14.35
